Time;durP1;ratioP1;P1;durP2;ratioP2;P2;SDS_P1;SDS_P2;PMS_P1;PMS_P2;Temp;Humidity;BMP_temperature;BMP_pressure;BME280_temperature;BME280_humidity;BME280_pressure;Samples;Min_cycle;Max_cycle;Signal;HPM_P1;HPM_P2
2022/09/29 00:02:08;;;;;;;;;;;13.50;99.90;;;11.53;100.00;98638.44;10457810;28;19983;-85
2022/09/29 00:07:10;;;;;;;;;;;13.50;99.90;;;11.55;100.00;98643.53;10459719;28;20028;-86
2022/09/29 00:12:13;;;;;;;;;;;13.50;99.90;;;11.53;100.00;98647.22;10457282;28;20300;-85
2022/09/29 00:17:16;;;;;;;;;;;13.50;99.90;;;11.55;100.00;98643.53;10459116;28;19929;-85
2022/09/29 00:22:19;;;;;;;;;;;13.50;99.90;;;11.58;100.00;98637.81;10450803;28;19929;-86
2022/09/29 00:27:21;;;;;;;;;;;13.50;99.90;;;11.61;100.00;98642.69;10459098;28;19965;-86
2022/09/29 00:32:24;;;;;;;;;;;13.50;99.90;;;11.60;100.00;98639.22;10447346;28;20000;-87
2022/09/29 00:37:27;;;;;;;;;;;13.50;99.90;;;11.63;100.00;98630.78;10469166;28;19929;-86
2022/09/29 00:42:31;;;;;;;;;;;13.50;99.90;;;11.67;100.00;98637.34;10452898;28;19933;-87
2022/09/29 00:47:35;;;;;;;;;;;13.60;99.90;;;11.73;100.00;98614.38;10459377;28;19935;-86
2022/09/29 00:52:42;;;;;;;;;;;13.60;99.90;;;11.78;100.00;98627.88;10441131;28;19929;-86
2022/09/29 00:57:53;;;;;;;;;;;13.70;99.90;;;11.81;100.00;98614.16;10459443;28;19929;-86
2022/09/29 01:03:04;;;;;;;;;;;13.70;99.90;;;11.82;100.00;98607.00;10435446;28;20479;-86
2022/09/29 01:08:19;;;;;;;;;;;13.70;99.90;;;11.81;100.00;98606.16;10459959;28;20347;-86
2022/09/29 01:13:22;;;;;;;;;;;13.70;99.90;;;11.79;100.00;98606.34;10441201;28;19936;-85
2022/09/29 01:18:25;;;;;;;;;;;13.70;99.90;;;11.75;100.00;98591.88;10456006;28;20449;-85
2022/09/29 01:23:51;;;;;;;;;;;13.70;99.90;;;11.76;100.00;98600.66;10444511;28;19929;-85
2022/09/29 01:29:11;;;;;;;;;;;13.70;99.90;;;11.75;100.00;98605.16;10456230;28;19929;-86
2022/09/29 01:34:20;;;;;;;;;;;13.70;99.90;;;11.75;100.00;98601.66;10457891;28;19929;-85
2022/09/29 01:39:44;;;;;;;;;;;13.70;99.90;;;11.76;100.00;98598.00;10461413;28;19979;-86
2022/09/29 01:44:47;;;;;;;;;;;13.70;99.90;;;11.74;100.00;98594.72;10433141;28;19929;-85
2022/09/29 01:50:02;;;;;;;;;;;13.70;99.90;;;11.73;100.00;98588.59;10449087;28;20383;-86
2022/09/29 01:55:17;;;;;;;;;;;13.60;99.90;;;11.75;100.00;98586.53;10461587;28;19972;-87
2022/09/29 02:00:22;;;;;;;;;;;13.60;99.90;;;11.74;100.00;98584.88;10470216;28;19936;-87
2022/09/29 02:05:28;;;;;;;;;;;13.70;99.90;;;11.73;100.00;98583.25;10463644;28;20389;-87
2022/09/29 02:10:35;;;;;;;;;;;13.70;99.90;;;11.74;100.00;98581.41;10461311;28;20464;-87
2022/09/29 02:15:42;;;;;;;;;;;13.70;99.90;;;11.74;100.00;98584.06;10457963;28;19929;-87
2022/09/29 02:20:46;;;;;;;;;;;13.60;99.90;;;11.74;100.00;98576.09;10463855;28;20023;-87
2022/09/29 02:25:49;;;;;;;;;;;13.60;99.90;;;11.73;100.00;98571.81;10462401;28;19936;-86
2022/09/29 02:30:53;;;;;;;;;;;13.70;99.90;;;11.73;100.00;98574.47;10456957;28;19964;-87
2022/09/29 02:35:58;;;;;;;;;;;13.70;99.90;;;11.73;100.00;98567.28;10437105;28;20423;-87
2022/09/29 02:41:06;;;;;;;;;;;13.70;99.90;;;11.72;100.00;98581.63;10461504;28;19929;-87
2022/09/29 02:46:33;;;;;;;;;;;13.60;99.90;;;11.73;100.00;98595.75;10460897;28;19929;-85
2022/09/29 02:51:43;;;;;;;;;;;13.60;99.90;;;11.71;100.00;98593.31;10463878;28;19929;-85
2022/09/29 02:57:23;;;;;;;;;;;13.60;99.90;;;11.72;100.00;98591.47;10462381;28;19929;-84
2022/09/29 03:02:26;;;;;;;;;;;13.60;99.90;;;11.70;100.00;98602.34;10456399;28;20019;-85
2022/09/29 03:07:29;;;;;;;;;;;13.60;99.90;;;11.71;100.00;98611.94;10464840;28;19929;-85
2022/09/29 03:12:32;;;;;;;;;;;13.60;99.90;;;11.72;100.00;98612.75;10459833;28;20395;-88
2022/09/29 03:17:35;;;;;;;;;;;13.60;99.90;;;11.70;100.00;98612.97;10457745;28;19935;-87
2022/09/29 03:22:38;;;;;;;;;;;13.60;99.90;;;11.69;100.00;98618.50;10459604;28;19928;-87
2022/09/29 03:27:41;;;;;;;;;;;13.60;99.90;;;11.65;100.00;98611.97;10460561;28;19928;-86
2022/09/29 03:32:43;;;;;;;;;;;13.60;99.90;;;11.64;100.00;98613.84;10456524;28;19933;-87
2022/09/29 03:37:46;;;;;;;;;;;13.60;99.90;;;11.64;100.00;98613.84;10439270;28;19933;-87
2022/09/29 03:42:49;;;;;;;;;;;13.60;99.90;;;11.63;100.00;98611.34;10458724;28;20514;-87
2022/09/29 03:47:52;;;;;;;;;;;13.60;99.90;;;11.64;100.00;98602.38;10461549;28;19959;-87
2022/09/29 03:52:54;;;;;;;;;;;13.60;99.90;;;11.65;100.00;98601.34;10462943;28;20008;-90
2022/09/29 03:57:57;;;;;;;;;;;13.60;99.90;;;11.65;100.00;98590.69;10457794;28;19951;-89
2022/09/29 04:03:00;;;;;;;;;;;13.60;99.90;;;11.67;100.00;98592.09;10432322;28;20003;-89
2022/09/29 04:08:06;;;;;;;;;;;13.60;99.90;;;11.65;100.00;98572.88;10455651;28;20351;-89
2022/09/29 04:13:09;;;;;;;;;;;13.60;99.90;;;11.65;100.00;98570.22;10438281;28;19928;-93
2022/09/29 04:18:11;;;;;;;;;;;13.60;99.90;;;11.64;100.00;98579.25;10456843;28;19929;-91
2022/09/29 04:23:14;;;;;;;;;;;13.50;99.90;;;11.64;100.00;98568.59;10466175;28;19980;-88
2022/09/29 04:28:17;;;;;;;;;;;13.50;99.90;;;11.64;100.00;98573.91;10454644;28;19929;-88
2022/09/29 04:33:19;;;;;;;;;;;13.50;99.90;;;11.64;100.00;98571.25;10463019;28;19929;-88
2022/09/29 04:38:22;;;;;;;;;;;13.50;99.90;;;11.66;100.00;98584.34;10468325;28;20024;-87
2022/09/29 04:43:25;;;;;;;;;;;13.50;99.90;;;11.63;100.00;98582.09;10457471;28;19929;-87
2022/09/29 04:48:28;;;;;;;;;;;13.60;99.90;;;11.65;100.00;98577.41;10451931;28;19930;-87
2022/09/29 04:53:36;;;;;;;;;;;13.60;99.90;;;11.66;100.00;98585.16;10439181;28;20018;-87
2022/09/29 04:58:41;;;;;;;;;;;13.50;99.90;;;11.68;100.00;98584.94;10451955;28;20335;-87
2022/09/29 05:03:43;;;;;;;;;;;13.60;99.90;;;11.69;100.00;98594.53;10458765;28;19928;-86
2022/09/29 05:08:46;;;;;;;;;;;13.60;99.90;;;11.71;100.00;98595.97;10458463;28;19936;-86
2022/09/29 05:13:52;;;;;;;;;;;13.60;99.90;;;11.71;100.00;98595.16;10455517;28;20372;-86
2022/09/29 05:18:54;;;;;;;;;;;13.60;99.90;;;11.72;100.00;98592.28;10452533;28;19929;-86
2022/09/29 05:23:57;;;;;;;;;;;13.60;99.90;;;11.71;100.00;98597.81;10458906;28;20355;-86
2022/09/29 05:29:00;;;;;;;;;;;13.60;99.90;;;11.72;100.00;98607.44;10454106;28;19936;-88
2022/09/29 05:34:03;;;;;;;;;;;13.60;99.90;;;11.73;100.00;98601.06;10441351;28;19929;-88
2022/09/29 05:39:06;;;;;;;;;;;13.60;99.90;;;11.72;100.00;98602.94;10458944;28;19933;-88
2022/09/29 05:44:08;;;;;;;;;;;13.60;99.90;;;11.72;100.00;98596.78;10442312;28;19929;-88
2022/09/29 05:49:11;;;;;;;;;;;13.60;99.90;;;11.72;100.00;98610.91;10435203;28;20373;-88
2022/09/29 05:54:14;;;;;;;;;;;13.60;99.90;;;11.71;100.00;98609.28;10466055;28;19929;-87
2022/09/29 05:59:17;;;;;;;;;;;13.50;99.90;;;11.74;100.00;98618.66;10458272;28;20415;-88
2022/09/29 06:04:20;;;;;;;;;;;13.60;99.90;;;11.74;100.00;98616.81;10470987;28;19929;-87
2022/09/29 06:09:22;;;;;;;;;;;13.60;99.90;;;11.75;100.00;98614.97;10459050;28;19929;-88
2022/09/29 06:14:25;;;;;;;;;;;13.60;99.90;;;11.77;100.00;98620.91;10478707;28;19928;-87
2022/09/29 06:19:28;;;;;;;;;;;13.60;99.90;;;11.80;100.00;98615.16;10486585;28;19983;-87
2022/09/29 06:24:31;;;;;;;;;;;13.70;99.90;;;11.84;100.00;98627.03;10458063;28;20357;-88
2022/09/29 06:29:33;;;;;;;;;;;13.70;99.90;;;11.88;100.00;98625.59;10456021;28;20496;-87
2022/09/29 06:37:33;;;;;;;;;;;13.80;99.90;;;11.91;100.00;98621.66;10459074;28;19936;-88
2022/09/29 06:40:02;;;;;;;;;;;13.80;99.90;;;11.95;100.00;98633.53;10475058;28;20396;-88
2022/09/29 06:45:10;;;;;;;;;;;13.80;99.90;;;12.00;100.00;98636.38;10463334;28;20446;-87
2022/09/29 06:50:12;;;;;;;;;;;13.90;99.90;;;12.04;100.00;98643.69;10465294;28;19933;-87
2022/09/29 06:55:17;;;;;;;;;;;14.00;99.90;;;12.10;100.00;98646.53;10462380;28;20311;-87
2022/09/29 07:00:19;;;;;;;;;;;14.00;99.90;;;12.10;100.00;98652.66;10465721;28;19929;-88
2022/09/29 07:05:22;;;;;;;;;;;14.00;99.90;;;12.09;100.00;98655.56;10467971;28;19929;-86
2022/09/29 07:10:25;;;;;;;;;;;14.00;99.90;;;11.91;100.00;98649.09;10446126;28;19932;-87
2022/09/29 07:15:30;;;;;;;;;;;13.80;99.90;;;11.74;100.00;98669.22;10463669;28;20427;-87
2022/09/29 07:20:34;;;;;;;;;;;13.60;99.90;;;11.60;100.00;98673.00;10443200;28;19951;-86
2022/09/29 07:25:37;;;;;;;;;;;13.40;99.90;;;11.51;100.00;98669.75;10440703;28;19929;-88
2022/09/29 07:31:02;;;;;;;;;;;13.30;99.90;;;11.52;100.00;98679.38;10459283;28;19929;-87
2022/09/29 07:36:18;;;;;;;;;;;13.30;99.90;;;11.52;100.00;98680.19;10462740;28;19929;-87
2022/09/29 07:41:21;;;;;;;;;;;13.30;99.90;;;11.55;100.00;98678.13;10445302;28;19929;-87
2022/09/29 07:46:24;;;;;;;;;;;13.30;99.90;;;11.64;100.00;98684.84;10463486;28;19929;-86
2022/09/29 07:51:27;;;;;;;;;;;13.40;99.90;;;11.81;100.00;98686.00;10461423;28;20383;-88
2022/09/29 07:56:30;;;;;;;;;;;13.50;99.90;;;12.00;100.00;98686.97;10461224;28;20372;-88
2022/09/29 08:01:32;;;;;;;;;;;13.70;99.90;;;12.08;100.00;98692.00;10460716;28;19929;-85
2022/09/29 08:06:35;;;;;;;;;;;13.80;99.90;;;12.14;100.00;98685.03;10461336;28;19968;-88
2022/09/29 08:11:40;;;;;;;;;;;13.90;99.90;;;12.28;100.00;98697.19;10441917;28;20016;-88
2022/09/29 08:16:43;;;;;;;;;;;14.00;99.90;;;12.41;100.00;98707.75;10443596;28;19936;-89
2022/09/29 08:21:48;;;;;;;;;;;14.20;99.90;;;12.54;100.00;98713.03;10455319;28;20347;-88
2022/09/29 08:26:51;;;;;;;;;;;14.30;99.90;;;12.69;100.00;98725.19;10443813;28;20389;-88
2022/09/29 08:31:55;;;;;;;;;;;14.50;99.90;;;12.79;100.00;98720.19;10445823;28;19936;-86
2022/09/29 08:36:58;;;;;;;;;;;14.60;99.90;;;12.82;100.00;98731.22;10458436;28;19929;-86
2022/09/29 08:42:22;;;;;;;;;;;14.60;99.90;;;12.83;100.00;98734.72;10459645;28;19928;-83
2022/09/29 08:47:34;;;;;;;;;;;14.60;99.90;;;12.82;100.00;98743.75;10463554;28;19933;-86
2022/09/29 08:52:56;;;;;;;;;;;14.60;99.90;;;12.84;100.00;98742.50;10460437;28;19936;-85
2022/09/29 08:58:00;;;;;;;;;;;14.60;99.90;;;12.89;100.00;98746.34;10460711;28;19968;-87
2022/09/29 09:03:18;;;;;;;;;;;14.60;99.90;;;12.86;100.00;98734.28;10459856;28;19929;-87
2022/09/29 09:08:45;;;;;;;;;;;14.60;99.90;;;12.89;100.00;98741.84;10456353;28;19929;-85
2022/09/29 09:14:22;;;;;;;;;;;14.70;99.90;;;12.97;100.00;98738.91;10459339;28;20300;-86
2022/09/29 09:19:50;;;;;;;;;;;14.70;99.90;;;13.15;100.00;98739.97;10459643;28;19929;-87
2022/09/29 09:25:03;;;;;;;;;;;14.90;99.90;;;13.38;100.00;98734.84;10460447;28;19959;-87
2022/09/29 09:30:18;;;;;;;;;;;15.10;99.90;;;13.65;100.00;98738.84;10463356;28;19975;-87
2022/09/29 09:35:28;;;;;;;;;;;15.40;99.90;;;14.10;100.00;98751.88;10457801;28;19928;-86
2022/09/29 09:40:47;;;;;;;;;;;15.90;99.90;;;14.42;100.00;98754.31;10457417;28;19929;-87
2022/09/29 09:45:57;;;;;;;;;;;16.30;99.90;;;14.73;100.00;98753.25;10459799;28;19936;-87
2022/09/29 09:51:10;;;;;;;;;;;16.60;99.90;;;14.84;100.00;98748.97;10459737;28;19972;-87
2022/09/29 09:56:17;;;;;;;;;;;16.70;99.90;;;14.77;100.00;98750.94;10439963;28;19929;-88
2022/09/29 10:01:19;;;;;;;;;;;16.70;99.90;;;14.76;100.00;98754.66;10456437;28;19929;-88
2022/09/29 10:06:23;;;;;;;;;;;16.70;99.90;;;14.81;100.00;98755.56;10454705;28;19967;-87
2022/09/29 10:11:29;;;;;;;;;;;16.80;99.90;;;14.84;100.00;98749.78;10456779;28;19936;-87
2022/09/29 10:16:42;;;;;;;;;;;16.80;99.90;;;14.80;100.00;98747.78;10465231;28;19975;-87
2022/09/29 10:21:45;;;;;;;;;;;16.80;99.90;;;14.94;100.00;98738.50;10460415;28;20023;-87
2022/09/29 10:26:50;;;;;;;;;;;17.00;99.90;;;15.16;100.00;98752.13;10449351;28;19979;-86
2022/09/29 10:32:03;;;;;;;;;;;17.20;99.90;;;15.45;100.00;98755.72;10448668;28;19929;-87
2022/09/29 10:37:37;;;;;;;;;;;17.50;99.90;;;15.67;100.00;98747.94;10430610;28;19952;-86
2022/09/29 10:42:42;;;;;;;;;;;17.80;99.90;;;15.88;100.00;98735.75;10457967;28;19932;-85
2022/09/29 10:47:47;;;;;;;;;;;18.00;99.90;;;16.07;100.00;98742.53;10465235;28;19929;-85
2022/09/29 10:52:56;;;;;;;;;;;18.20;99.90;;;16.19;100.00;98743.34;10463183;28;20392;-85
2022/09/29 10:58:05;;;;;;;;;;;18.30;99.90;;;16.33;100.00;98750.03;10422369;28;19930;-85
2022/09/29 11:03:25;;;;;;;;;;;18.50;99.90;;;16.52;100.00;98750.63;10444552;28;20348;-85
2022/09/29 11:08:27;;;;;;;;;;;18.70;99.90;;;16.68;99.28;98764.31;10463591;28;19933;-85
2022/09/29 11:13:33;;;;;;;;;;;18.80;99.90;;;16.66;97.86;98766.41;10466672;28;19932;-85
2022/09/29 11:18:38;;;;;;;;;;;18.80;99.90;;;16.54;95.97;98759.25;10463721;28;19936;-86
2022/09/29 11:24:13;;;;;;;;;;;18.60;99.90;;;16.44;95.45;98752.91;10457335;28;19936;-85
2022/09/29 11:29:38;;;;;;;;;;;18.50;99.90;;;16.23;91.74;98763.22;10507477;28;19929;-85
2022/09/29 11:34:59;;;;;;;;;;;18.30;99.90;;;16.06;90.43;98771.22;10469766;28;19929;-85
2022/09/29 11:40:27;;;;;;;;;;;18.10;99.90;;;15.87;90.95;98768.94;10434005;28;19928;-85
2022/09/29 11:45:44;;;;;;;;;;;17.90;99.90;;;15.83;90.29;98770.47;10467073;28;19960;-84
2022/09/29 11:51:05;;;;;;;;;;;17.80;99.90;;;15.72;89.68;98775.63;10458091;28;19929;-85
2022/09/29 11:56:37;;;;;;;;;;;17.70;99.90;;;15.58;89.37;98781.44;10463810;28;19929;-86
2022/09/29 12:01:46;;;;;;;;;;;17.50;99.90;;;15.43;89.81;98780.06;10460877;28;19932;-87
2022/09/29 12:07:04;;;;;;;;;;;17.40;99.90;;;15.32;89.30;98788.09;10458536;28;19929;-85
2022/09/29 12:12:17;;;;;;;;;;;17.30;99.90;;;15.20;89.14;98788.88;10446627;28;19936;-89
2022/09/29 12:17:30;;;;;;;;;;;17.10;99.90;;;15.10;89.20;98791.31;10453643;28;19935;-87
2022/09/29 12:22:33;;;;;;;;;;;17.00;99.90;;;15.05;89.60;98799.22;10428323;28;19929;-88
2022/09/29 12:27:41;;;;;;;;;;;16.90;99.90;;;15.01;89.73;98799.94;10438358;28;20830;-88
2022/09/29 12:32:58;;;;;;;;;;;16.90;99.90;;;14.99;90.07;98794.78;10439292;28;19959;-88
2022/09/29 12:38:08;;;;;;;;;;;16.90;99.90;;;15.00;91.22;98807.13;10475511;28;20033;-87
2022/09/29 12:43:18;;;;;;;;;;;16.90;99.90;;;14.95;90.58;98813.16;10456430;28;19929;-87
2022/09/29 12:48:24;;;;;;;;;;;16.90;99.90;;;14.87;91.75;98805.50;10452810;28;19936;-87
2022/09/29 12:53:34;;;;;;;;;;;16.80;99.90;;;14.84;93.01;98803.25;10462264;28;20377;-86
2022/09/29 12:58:46;;;;;;;;;;;16.70;99.90;;;14.82;93.80;98805.34;10468944;28;19936;-88
2022/09/29 13:04:02;;;;;;;;;;;16.70;99.90;;;14.80;95.02;98822.66;10456754;28;20332;-87
2022/09/29 13:09:12;;;;;;;;;;;16.70;99.90;;;14.77;96.11;98823.13;10428115;28;20312;-87
2022/09/29 13:14:35;;;;;;;;;;;16.60;99.90;;;14.69;95.26;98826.94;10455909;28;20447;-86
2022/09/29 13:19:57;;;;;;;;;;;16.50;99.90;;;14.66;96.10;98816.69;10408394;28;19929;-88
2022/09/29 13:25:10;;;;;;;;;;;16.50;99.90;;;14.68;96.84;98818.09;10452705;28;19933;-88
2022/09/29 13:30:26;;;;;;;;;;;16.60;99.90;;;14.75;97.04;98819.84;10451671;28;19936;-87
2022/09/29 13:35:36;;;;;;;;;;;16.60;99.90;;;14.84;97.36;98805.13;10429699;28;19936;-88
2022/09/29 13:41:00;;;;;;;;;;;16.70;99.90;;;14.94;97.49;98813.41;10449630;28;19929;-88
2022/09/29 13:46:30;;;;;;;;;;;16.80;99.90;;;15.08;97.21;98804.13;10453052;28;19929;-88
2022/09/29 13:52:09;;;;;;;;;;;17.00;99.90;;;15.24;96.80;98816.81;10449645;28;20024;-88
2022/09/29 13:57:11;;;;;;;;;;;17.20;99.90;;;15.37;96.19;98833.69;10452156;28;20415;-88
2022/09/29 14:02:32;;;;;;;;;;;17.30;99.90;;;15.36;95.49;98840.91;10492969;28;19936;-87
2022/09/29 14:07:54;;;;;;;;;;;17.30;99.90;;;15.35;94.76;98836.59;10464501;28;19935;-88
2022/09/29 14:13:09;;;;;;;;;;;17.30;99.90;;;15.38;95.10;98840.69;10461958;28;19929;-88
2022/09/29 14:18:41;;;;;;;;;;;17.30;99.90;;;15.35;94.71;98841.13;10448147;28;19929;-88
2022/09/29 14:23:44;;;;;;;;;;;17.30;99.90;;;15.37;95.47;98844.41;10456620;28;20309;-88
2022/09/29 14:28:51;;;;;;;;;;;17.30;99.90;;;15.45;96.15;98836.84;10458976;28;20400;-90
2022/09/29 14:33:54;;;;;;;;;;;17.40;99.90;;;15.53;94.83;98855.25;10453007;28;19933;-89
2022/09/29 14:38:57;;;;;;;;;;;17.50;99.90;;;15.60;94.33;98863.16;10442716;28;20315;-88
2022/09/29 14:55:46;;;;;;;;;;;17.40;99.90;;;15.26;91.47;98881.63;10466905;28;19935;-87
2022/09/29 15:01:11;;;;;;;;;;;17.20;99.90;;;15.07;90.45;98890.78;10463523;28;19936;-87
2022/09/29 15:06:22;;;;;;;;;;;17.00;99.90;;;14.96;91.20;98883.53;10465435;28;19936;-88
2022/09/29 15:11:36;;;;;;;;;;;16.90;99.90;;;14.88;91.35;98887.34;10446697;28;19936;-89
2022/09/29 15:16:47;;;;;;;;;;;16.80;99.90;;;14.84;92.26;98874.66;10465042;28;19964;-89
2022/09/29 15:22:05;;;;;;;;;;;16.80;99.90;;;14.83;93.27;98881.88;10463171;28;20028;-89
2022/09/29 15:27:12;;;;;;;;;;;16.80;99.90;;;14.77;94.11;98877.44;10479211;28;20269;-88
2022/09/29 15:32:23;;;;;;;;;;;16.80;99.90;;;14.70;94.36;98888.22;10478087;28;20298;-88
2022/09/29 15:38:15;;;;;;;;;;;16.70;99.90;;;14.65;95.01;98885.41;10445803;28;19936;-88
2022/09/29 15:43:27;;;;;;;;;;;16.60;99.90;;;14.54;95.43;98882.66;10446015;28;20230;-88
2022/09/29 15:48:30;;;;;;;;;;;16.50;99.90;;;14.42;95.72;98896.75;10462439;28;19929;-88
2022/09/29 15:53:33;;;;;;;;;;;16.40;99.90;;;14.34;95.96;98904.28;10449044;28;20451;-89
2022/09/29 15:58:43;;;;;;;;;;;16.30;99.90;;;14.20;96.48;98904.41;10457958;28;19929;-90
2022/09/29 16:03:49;;;;;;;;;;;16.20;99.90;;;14.10;96.99;98909.47;10458053;28;19936;-89
2022/09/29 16:08:55;;;;;;;;;;;16.10;99.90;;;14.03;97.53;98910.56;10457439;28;19929;-90
2022/09/29 16:14:19;;;;;;;;;;;16.00;99.90;;;13.97;98.06;98936.28;10472662;28;19928;-89
2022/09/29 16:19:29;;;;;;;;;;;15.90;99.90;;;13.85;98.03;98932.72;10451575;28;19952;-89
2022/09/29 16:24:49;;;;;;;;;;;15.80;99.90;;;13.77;98.71;98938.34;10454372;28;20323;-90
2022/09/29 16:30:16;;;;;;;;;;;15.70;99.90;;;13.66;98.79;98956.69;10453032;28;19952;-85
2022/09/29 16:35:40;;;;;;;;;;;15.60;99.90;;;13.52;99.06;98967.72;10448572;28;20308;-84
2022/09/29 16:40:44;;;;;;;;;;;15.50;99.90;;;13.41;99.48;98953.19;10443901;28;19995;-84
2022/09/29 16:45:51;;;;;;;;;;;15.40;99.90;;;13.32;100.00;98951.84;10444255;28;19929;-84
2022/09/29 16:50:56;;;;;;;;;;;15.20;99.90;;;13.21;100.00;98958.69;10440036;28;19929;-84
2022/09/29 16:56:17;;;;;;;;;;;15.10;99.90;;;13.10;100.00;98954.81;10455657;28;20030;-84
2022/09/29 17:01:23;;;;;;;;;;;15.00;99.90;;;13.00;100.00;98929.63;10449109;28;19928;-84
2022/09/29 17:06:27;;;;;;;;;;;14.90;99.90;;;12.93;100.00;98935.00;10449374;28;20378;-84
2022/09/29 17:11:31;;;;;;;;;;;14.80;99.90;;;12.86;100.00;98945.72;10452568;28;20023;-84
2022/09/29 17:16:33;;;;;;;;;;;14.80;99.90;;;12.78;100.00;98947.81;10450374;28;19929;-84
2022/09/29 17:21:36;;;;;;;;;;;14.70;99.90;;;12.67;100.00;98961.81;10454717;28;19928;-93
2022/09/29 17:32:11;;;;;;;;;;;14.50;99.90;;;12.48;100.00;98975.00;10450446;28;20349;-89
2022/09/29 17:37:18;;;;;;;;;;;14.40;99.90;;;12.39;100.00;98970.09;10456986;28;19936;-90
2022/09/29 17:42:24;;;;;;;;;;;14.30;99.90;;;12.27;100.00;98964.59;10463214;28;19929;-89
2022/09/29 17:47:27;;;;;;;;;;;14.30;99.90;;;12.19;100.00;98976.28;10455959;28;19929;-88
2022/09/29 17:52:34;;;;;;;;;;;14.20;99.90;;;12.12;100.00;98975.50;10448713;28;19936;-89
2022/09/29 17:57:37;;;;;;;;;;;14.10;99.90;;;12.06;100.00;98976.31;10452051;28;19929;-89
2022/09/29 18:02:40;;;;;;;;;;;14.00;99.90;;;12.00;100.00;98971.81;10457147;28;19933;-87
2022/09/29 18:07:43;;;;;;;;;;;14.00;99.90;;;11.93;100.00;98982.44;10452835;28;19991;-86
2022/09/29 18:12:46;;;;;;;;;;;13.90;99.90;;;11.88;100.00;99000.09;10452338;28;20351;-89
2022/09/29 18:17:54;;;;;;;;;;;13.80;99.90;;;11.74;100.00;99012.53;10460178;28;19917;-90
2022/09/29 18:23:00;;;;;;;;;;;13.80;99.90;;;11.65;100.00;98995.13;10435400;28;19975;-91
2022/09/29 18:28:03;;;;;;;;;;;13.60;99.90;;;11.59;100.00;99002.09;10457087;28;20388;-91
2022/09/29 18:33:13;;;;;;;;;;;13.60;99.90;;;11.53;100.00;99002.91;10459481;28;20377;-91
2022/09/29 18:38:16;;;;;;;;;;;13.50;99.90;;;11.45;100.00;99003.91;10464099;28;19979;-90
2022/09/29 18:43:20;;;;;;;;;;;13.50;99.90;;;11.38;100.00;99021.69;10462207;28;19933;-90
2022/09/29 18:48:23;;;;;;;;;;;13.40;99.90;;;11.31;100.00;99026.19;10460569;28;20021;-89
2022/09/29 18:53:26;;;;;;;;;;;13.30;99.90;;;11.28;100.00;99025.78;10462296;28;20289;-90
2022/09/29 18:58:29;;;;;;;;;;;13.20;99.90;;;11.25;100.00;99050.91;10459163;28;20032;-90
2022/09/29 19:03:32;;;;;;;;;;;13.20;99.90;;;11.18;100.00;99072.19;10461947;28;19976;-91
2022/09/29 19:08:35;;;;;;;;;;;13.10;99.90;;;11.15;100.00;99090.34;10460202;28;19936;-90
2022/09/29 19:13:40;;;;;;;;;;;13.10;99.90;;;11.10;100.00;99083.00;10460099;28;19941;-91
2022/09/29 19:18:43;;;;;;;;;;;13.00;99.90;;;11.07;100.00;99080.72;10460683;28;19979;-92
2022/09/29 19:23:46;;;;;;;;;;;13.00;99.90;;;11.05;100.00;99077.44;10453253;28;19983;-90
2022/09/29 19:28:49;;;;;;;;;;;13.00;99.90;;;11.01;100.00;99086.00;10460004;28;19929;-91
2022/09/29 19:33:52;;;;;;;;;;;12.90;99.90;;;10.97;100.00;99091.72;10440343;28;19936;-91
2022/09/29 19:38:55;;;;;;;;;;;12.90;99.90;;;10.98;100.00;99090.72;10453921;28;20332;-90
2022/09/29 19:43:58;;;;;;;;;;;12.90;99.90;;;10.99;100.00;99097.66;10461494;28;19928;-91
2022/09/29 19:49:02;;;;;;;;;;;12.90;99.90;;;11.03;100.00;99113.19;10461948;28;19929;-91
2022/09/29 19:54:09;;;;;;;;;;;13.00;99.90;;;11.03;100.00;99105.22;10452135;28;19964;-90
2022/09/29 19:59:14;;;;;;;;;;;13.00;99.90;;;10.99;100.00;99097.66;10475674;28;19929;-89
2022/09/29 20:04:19;;;;;;;;;;;13.00;99.90;;;10.98;100.00;99098.69;10456499;28;19929;-89
2022/09/29 20:09:21;;;;;;;;;;;12.90;99.90;;;10.95;100.00;99096.41;10441726;28;19936;-89
2022/09/29 20:14:26;;;;;;;;;;;12.90;99.90;;;10.92;100.00;99096.81;10435983;28;20472;-89
2022/09/29 20:19:30;;;;;;;;;;;12.90;99.90;;;10.89;100.00;99105.16;10461638;28;19936;-89
2022/09/29 20:24:32;;;;;;;;;;;12.80;99.90;;;10.83;100.00;99105.13;10456942;28;19983;-89
2022/09/29 20:29:35;;;;;;;;;;;12.80;99.90;;;10.79;100.00;99112.66;10459131;28;20017;-88
2022/09/29 20:34:38;;;;;;;;;;;12.70;99.90;;;10.76;100.00;99123.69;10459045;28;19929;-88
2022/09/29 20:39:41;;;;;;;;;;;12.70;99.90;;;10.74;100.00;99135.56;10458646;28;20376;-89
2022/09/29 20:44:44;;;;;;;;;;;12.70;99.90;;;10.72;100.00;99139.19;10458081;28;19929;-90
2022/09/29 20:49:47;;;;;;;;;;;12.70;99.90;;;10.74;100.00;99141.69;10450357;28;20303;-90
2022/09/29 20:54:50;;;;;;;;;;;12.70;99.90;;;10.78;100.00;99139.44;10457083;28;20352;-90
2022/09/29 20:59:54;;;;;;;;;;;12.80;99.90;;;10.78;100.00;99142.91;10456510;28;20369;-91
2022/09/29 21:04:57;;;;;;;;;;;12.80;99.90;;;10.79;100.00;99146.38;10457339;28;19936;-89
2022/09/29 21:10:00;;;;;;;;;;;12.80;99.90;;;10.77;100.00;99165.19;10502210;28;19933;-89
2022/09/29 21:15:03;;;;;;;;;;;12.80;99.90;;;10.80;100.00;99185.25;10479953;28;19935;-88
2022/09/29 21:20:06;;;;;;;;;;;12.70;99.90;;;10.86;100.00;99184.50;10462623;28;19929;-90
2022/09/29 21:25:08;;;;;;;;;;;12.80;99.90;;;10.93;100.00;99194.13;10459963;28;20380;-90
2022/09/29 21:30:11;;;;;;;;;;;12.90;99.90;;;10.97;100.00;99198.06;10456943;28;20475;-91
2022/09/29 21:35:14;;;;;;;;;;;12.90;99.90;;;11.04;100.00;99215.88;10455215;28;20388;-90
2022/09/29 21:40:17;;;;;;;;;;;13.00;99.90;;;11.07;100.00;99220.81;10447138;28;19933;-88
2022/09/29 21:45:20;;;;;;;;;;;13.00;99.90;;;11.13;100.00;99231.47;10454956;28;20451;-89
2022/09/29 21:50:23;;;;;;;;;;;13.10;99.90;;;11.20;100.00;99242.97;10459201;28;20339;-89
2022/09/29 21:55:26;;;;;;;;;;;13.20;99.90;;;11.27;100.00;99216.41;10438440;28;19976;-88
2022/09/29 22:00:29;;;;;;;;;;;13.20;99.90;;;11.33;100.00;99201.50;10450643;28;19929;-89
2022/09/29 22:05:33;;;;;;;;;;;13.30;99.90;;;11.28;100.00;99172.88;10459878;28;19936;-89
2022/09/29 22:10:36;;;;;;;;;;;13.30;99.90;;;11.27;100.00;99176.53;10465437;28;19984;-90
2022/09/29 22:15:38;;;;;;;;;;;13.30;99.90;;;11.23;100.00;99177.94;10461131;28;19935;-90
2022/09/29 22:20:41;;;;;;;;;;;13.20;99.90;;;11.22;100.00;99171.81;10461399;28;20019;-89
2022/09/29 22:25:44;;;;;;;;;;;13.20;99.90;;;11.20;100.00;99162.38;10445067;28;19929;-90
2022/09/29 22:30:47;;;;;;;;;;;13.10;99.90;;;11.18;100.00;99164.41;10461156;28;20016;-89
2022/09/29 22:35:55;;;;;;;;;;;13.10;99.90;;;11.15;100.00;99170.13;10447892;28;20475;-89
2022/09/29 22:40:57;;;;;;;;;;;13.10;99.90;;;11.08;100.00;99164.78;10462634;28;20341;-86
2022/09/29 22:46:00;;;;;;;;;;;13.00;99.90;;;11.05;100.00;99182.97;10459737;28;20396;-86
2022/09/29 22:51:04;;;;;;;;;;;12.90;99.90;;;10.98;100.00;99181.09;10460719;28;19929;-89
2022/09/29 22:56:13;;;;;;;;;;;12.90;99.90;;;10.94;100.00;99179.81;10480832;28;19933;-89
2022/09/29 23:01:18;;;;;;;;;;;12.90;99.90;;;10.93;100.00;99188.81;10461959;28;19929;-88
2022/09/29 23:06:21;;;;;;;;;;;12.90;99.90;;;10.94;100.00;99194.97;10454198;28;19929;-88
2022/09/29 23:11:24;;;;;;;;;;;12.90;99.90;;;10.94;100.00;99217.03;10453243;28;20357;-88
2022/09/29 23:16:27;;;;;;;;;;;12.80;99.90;;;10.93;100.00;99228.69;10462120;28;19929;-88
2022/09/29 23:21:30;;;;;;;;;;;12.80;99.90;;;10.93;100.00;99231.34;10462286;28;20396;-89
2022/09/29 23:26:33;;;;;;;;;;;12.90;99.90;;;10.96;100.00;99244.25;10462443;28;19929;-90